Time;durP1;ratioP1;P1;durP2;ratioP2;P2;SDS_P1;SDS_P2;PMS_P1;PMS_P2;Temp;Humidity;BMP_temperature;BMP_pressure;BME280_temperature;BME280_humidity;BME280_pressure;Samples;Min_cycle;Max_cycle;Signal;HPM_P1;HPM_P2
2022/06/29 00:00:22;;;;;;;0.45;0.45;;;14.00;99.90;;;;;;5034306;28;20194;-74
2022/06/29 00:02:48;;;;;;;0.55;0.55;;;13.30;99.90;;;;;;5052269;28;20609;-74
2022/06/29 00:05:16;;;;;;;0.50;0.50;;;12.90;99.90;;;;;;5053149;28;20247;-75
2022/06/29 00:07:42;;;;;;;0.45;0.45;;;12.60;99.90;;;;;;5072115;28;20203;-75
2022/06/29 00:10:09;;;;;;;1.02;0.95;;;12.40;99.90;;;;;;5071148;28;20272;-80
2022/06/29 00:12:36;;;;;;;0.60;0.60;;;12.20;99.90;;;;;;5071827;28;20259;-78
2022/06/29 00:15:03;;;;;;;0.73;0.73;;;12.10;99.90;;;;;;5054061;28;20188;-77
2022/06/29 00:17:31;;;;;;;0.50;0.50;;;12.00;99.90;;;;;;5060662;28;20225;-78
2022/06/29 00:20:00;;;;;;;0.60;0.60;;;11.90;99.90;;;;;;5052086;28;20190;-75
2022/06/29 00:22:27;;;;;;;0.60;0.60;;;11.70;99.90;;;;;;5051762;28;20198;-76
2022/06/29 00:24:53;;;;;;;0.60;0.60;;;11.70;99.90;;;;;;5033963;28;20198;-76
2022/06/29 00:27:20;;;;;;;0.50;0.50;;;11.60;99.90;;;;;;5051609;28;20272;-77
2022/06/29 00:29:46;;;;;;;0.55;0.55;;;11.50;99.90;;;;;;5051754;28;20195;-76
2022/06/29 00:32:12;;;;;;;4.13;1.20;;;11.40;99.90;;;;;;5051709;28;20266;-75
2022/06/29 00:34:38;;;;;;;0.70;0.70;;;11.30;99.90;;;;;;5051547;28;20189;-78
2022/06/29 00:37:04;;;;;;;0.55;0.55;;;11.20;99.90;;;;;;5051581;28;20190;-74
2022/06/29 00:39:30;;;;;;;0.52;0.52;;;11.20;99.90;;;;;;5033431;28;20648;-74
2022/06/29 00:41:56;;;;;;;0.50;0.50;;;11.20;99.90;;;;;;5033542;28;20206;-74
2022/06/29 00:44:22;;;;;;;0.95;0.80;;;11.10;99.90;;;;;;5051455;28;20274;-75
2022/06/29 00:46:57;;;;;;;0.52;0.52;;;11.10;99.90;;;;;;5051414;28;20196;-75
2022/06/29 00:49:25;;;;;;;0.60;0.60;;;11.10;99.90;;;;;;5051201;28;20193;-75
2022/06/29 00:52:02;;;;;;;0.60;0.60;;;11.10;99.90;;;;;;5033541;28;20554;-74
2022/06/29 00:54:34;;;;;;;0.50;0.50;;;11.00;99.90;;;;;;5033646;28;20200;-73
2022/06/29 00:57:05;;;;;;;0.60;0.60;;;10.90;99.90;;;;;;5051406;28;20216;-74
2022/06/29 00:59:37;;;;;;;0.60;0.60;;;10.80;99.90;;;;;;5050656;28;20268;-74
2022/06/29 01:02:04;;;;;;;0.50;0.50;;;10.80;99.90;;;;;;5033577;28;20197;-78
2022/06/29 01:04:30;;;;;;;0.50;0.50;;;10.70;99.90;;;;;;5033153;28;20197;-77
2022/06/29 01:06:56;;;;;;;0.50;0.50;;;10.70;99.90;;;;;;5049622;28;20683;-77
2022/06/29 01:09:22;;;;;;;0.52;0.52;;;10.60;99.90;;;;;;5033078;28;20255;-78
2022/06/29 01:11:49;;;;;;;0.90;0.82;;;10.60;99.90;;;;;;5033309;28;20213;-77
2022/06/29 01:14:15;;;;;;;0.50;0.50;;;10.60;99.90;;;;;;5051167;28;20668;-78
2022/06/29 01:16:41;;;;;;;0.75;0.68;;;10.60;99.90;;;;;;5038146;28;20232;-77
2022/06/29 01:19:07;;;;;;;0.60;0.60;;;10.50;99.90;;;;;;5071225;28;20189;-77
2022/06/29 01:21:37;;;;;;;0.50;0.50;;;10.50;99.90;;;;;;5071621;28;20575;-78
2022/06/29 01:24:03;;;;;;;0.60;0.60;;;10.40;99.90;;;;;;5071762;28;20180;-77
2022/06/29 01:26:28;;;;;;;0.60;0.60;;;10.40;99.90;;;;;;5071406;28;20208;-77
2022/06/29 01:28:54;;;;;;;0.60;0.60;;;10.40;99.90;;;;;;5071708;28;20197;-77
2022/06/29 01:31:20;;;;;;;0.68;0.68;;;10.40;99.90;;;;;;5071204;28;20228;-78
2022/06/29 01:33:48;;;;;;;0.60;0.60;;;10.40;99.90;;;;;;5071791;28;20239;-78
2022/06/29 01:36:15;;;;;;;0.60;0.60;;;10.30;99.90;;;;;;5070440;28;20204;-79
2022/06/29 01:38:41;;;;;;;14.13;1.20;;;10.30;99.90;;;;;;5070277;28;20196;-79
2022/06/29 01:41:10;;;;;;;0.60;0.60;;;10.30;99.90;;;;;;5071564;28;20689;-78
2022/06/29 01:43:36;;;;;;;0.68;0.68;;;10.30;99.90;;;;;;5071362;28;20189;-78
2022/06/29 01:46:02;;;;;;;0.82;0.82;;;10.20;99.90;;;;;;5053696;28;20198;-78
2022/06/29 01:48:28;;;;;;;0.52;0.52;;;10.20;99.90;;;;;;5049854;28;20607;-77
2022/06/29 01:50:53;;;;;;;0.63;0.63;;;10.20;99.90;;;;;;5051321;28;20211;-78
2022/06/29 01:53:19;;;;;;;0.52;0.52;;;10.20;99.90;;;;;;5049944;28;20259;-76
2022/06/29 01:55:46;;;;;;;0.50;0.50;;;10.10;99.90;;;;;;5051465;28;20189;-77
2022/06/29 01:58:12;;;;;;;0.60;0.60;;;10.10;99.90;;;;;;5051316;28;20193;-78
2022/06/29 02:00:38;;;;;;;0.60;0.60;;;10.10;99.90;;;;;;5050043;28;20432;-75
2022/06/29 02:03:04;;;;;;;0.60;0.60;;;10.10;99.90;;;;;;5063424;28;20705;-77
2022/06/29 02:05:30;;;;;;;0.60;0.60;;;10.10;99.90;;;;;;5069733;28;20537;-78
2022/06/29 02:07:55;;;;;;;0.60;0.60;;;10.00;99.90;;;;;;5071415;28;20266;-77
2022/06/29 02:10:21;;;;;;;0.60;0.60;;;10.00;99.90;;;;;;5072494;28;20185;-78
2022/06/29 02:12:46;;;;;;;0.82;0.80;;;10.00;99.90;;;;;;5073614;28;20646;-78
2022/06/29 02:15:12;;;;;;;0.60;0.60;;;10.00;99.90;;;;;;5075047;28;20185;-78
2022/06/29 02:17:38;;;;;;;0.77;0.77;;;10.00;99.90;;;;;;5073415;28;20232;-77
2022/06/29 02:20:04;;;;;;;0.90;0.90;;;10.00;99.90;;;;;;5074867;28;20204;-77
2022/06/29 02:22:30;;;;;;;0.60;0.60;;;10.00;99.90;;;;;;5073535;28;20208;-78
2022/06/29 02:24:56;;;;;;;0.60;0.60;;;10.00;99.90;;;;;;5074951;28;20587;-77
2022/06/29 02:27:21;;;;;;;0.70;0.70;;;10.00;99.90;;;;;;5074722;28;20225;-77
2022/06/29 02:29:47;;;;;;;0.60;0.60;;;9.90;99.90;;;;;;5074878;28;20200;-79
2022/06/29 02:34:57;;;;;;;1.38;1.27;;;10.00;99.90;;;;;;5074968;28;20191;-78
2022/06/29 02:37:22;;;;;;;0.60;0.60;;;10.00;99.90;;;;;;5074292;28;20193;-78
2022/06/29 02:39:48;;;;;;;0.60;0.60;;;10.00;99.90;;;;;;5074661;28;20200;-78
2022/06/29 02:42:14;;;;;;;2.05;1.30;;;10.10;99.90;;;;;;5074427;28;20268;-77
2022/06/29 02:44:41;;;;;;;0.60;0.60;;;10.10;99.90;;;;;;5072494;28;20197;-78
2022/06/29 02:47:07;;;;;;;0.60;0.60;;;10.10;99.90;;;;;;5074983;28;20677;-77
2022/06/29 02:49:34;;;;;;;0.60;0.60;;;10.20;99.90;;;;;;5072987;28;20216;-78
2022/06/29 02:51:59;;;;;;;0.60;0.60;;;10.20;99.90;;;;;;5074453;28;20208;-78
2022/06/29 02:54:25;;;;;;;0.70;0.70;;;10.30;99.90;;;;;;5072928;28;20249;-77
2022/06/29 02:56:53;;;;;;;0.60;0.60;;;10.30;99.90;;;;;;5074384;28;20189;-77
2022/06/29 02:59:19;;;;;;;0.70;0.70;;;10.30;99.90;;;;;;5073587;28;20201;-77
2022/06/29 03:01:45;;;;;;;0.50;0.50;;;10.40;99.90;;;;;;5073006;28;20232;-78
2022/06/29 03:04:11;;;;;;;0.50;0.50;;;10.40;99.90;;;;;;5059652;28;20232;-77
2022/06/29 03:06:36;;;;;;;0.68;0.68;;;10.50;99.90;;;;;;5061426;28;20254;-77
2022/06/29 03:09:02;;;;;;;0.60;0.60;;;10.50;99.90;;;;;;5052627;28;20205;-76
2022/06/29 03:11:28;;;;;;;0.68;0.68;;;10.60;99.90;;;;;;5052464;28;20235;-77
2022/06/29 03:13:54;;;;;;;0.60;0.60;;;10.70;99.90;;;;;;5053951;28;20583;-77
2022/06/29 03:16:20;;;;;;;0.60;0.60;;;10.80;99.90;;;;;;5052307;28;20272;-76
2022/06/29 03:18:45;;;;;;;0.60;0.60;;;10.80;99.90;;;;;;5016834;28;20206;-77
2022/06/29 03:21:11;;;;;;;0.60;0.60;;;10.90;99.90;;;;;;5033455;28;20229;-78
2022/06/29 03:23:37;;;;;;;0.80;0.80;;;11.10;99.90;;;;;;5033015;28;20277;-76
2022/06/29 03:26:03;;;;;;;0.60;0.60;;;11.20;99.90;;;;;;5016040;28;20206;-77
2022/06/29 03:28:29;;;;;;;0.60;0.60;;;11.20;99.90;;;;;;5033369;28;20217;-76
2022/06/29 03:30:55;;;;;;;0.77;0.75;;;11.30;99.90;;;;;;5033624;28;20206;-77
2022/06/29 03:33:24;;;;;;;0.70;0.70;;;11.40;99.90;;;;;;5015642;28;20194;-77
2022/06/29 03:35:50;;;;;;;0.60;0.60;;;11.40;99.90;;;;;;5033949;28;20194;-76
2022/06/29 03:38:15;;;;;;;1.17;1.08;;;11.50;99.90;;;;;;5033517;28;20206;-77
2022/06/29 03:40:41;;;;;;;0.60;0.60;;;11.60;99.90;;;;;;5033366;28;20194;-77
2022/06/29 03:43:07;;;;;;;1.38;0.85;;;11.70;99.90;;;;;;5033388;28;20563;-77
2022/06/29 03:45:32;;;;;;;2.47;1.00;;;11.70;99.90;;;;;;5015354;28;20646;-78
2022/06/29 03:47:58;;;;;;;0.77;0.70;;;11.80;99.90;;;;;;5033875;28;20182;-77
2022/06/29 03:50:24;;;;;;;0.60;0.60;;;11.90;99.90;;;;;;5033578;28;20263;-77
2022/06/29 03:52:50;;;;;;;0.50;0.50;;;12.10;99.90;;;;;;5015686;28;20218;-77
2022/06/29 03:55:16;;;;;;;10.40;1.10;;;12.20;99.90;;;;;;5042518;28;20205;-76
2022/06/29 03:57:42;;;;;;;1.52;0.98;;;12.30;99.90;;;;;;5052859;28;20200;-76
2022/06/29 04:00:09;;;;;;;0.50;0.50;;;12.40;99.90;;;;;;5053060;28;20194;-76
2022/06/29 04:02:36;;;;;;;0.50;0.50;;;12.60;99.90;;;;;;5052862;28;20247;-78
2022/06/29 04:05:04;;;;;;;1.30;1.05;;;12.70;99.90;;;;;;5034505;28;20236;-76
2022/06/29 04:07:33;;;;;;;0.52;0.52;;;12.70;99.90;;;;;;5031511;28;20217;-77
2022/06/29 04:10:02;;;;;;;3.33;1.00;;;12.80;99.90;;;;;;5033089;28;20232;-77
2022/06/29 04:12:29;;;;;;;6.68;0.98;;;12.90;99.90;;;;;;5014863;28;20300;-77
2022/06/29 04:14:55;;;;;;;0.50;0.50;;;13.00;99.90;;;;;;5041623;28;20201;-78
2022/06/29 04:17:21;;;;;;;0.50;0.50;;;13.10;99.90;;;;;;5050525;28;20289;-77
2022/06/29 04:19:47;;;;;;;1.00;0.90;;;13.10;99.90;;;;;;5071441;28;20266;-77
2022/06/29 04:22:13;;;;;;;0.70;0.70;;;13.30;99.90;;;;;;5073042;28;20204;-77
2022/06/29 04:24:38;;;;;;;0.50;0.50;;;13.30;99.90;;;;;;5072617;28;20206;-77
2022/06/29 04:27:04;;;;;;;0.98;0.90;;;13.50;99.90;;;;;;5072552;28;20663;-76
2022/06/29 04:29:30;;;;;;;0.68;0.68;;;13.60;99.90;;;;;;5072319;28;20584;-77
2022/06/29 04:31:55;;;;;;;0.60;0.60;;;13.70;99.90;;;;;;5072614;28;20254;-77
2022/06/29 04:34:21;;;;;;;0.68;0.68;;;13.80;99.90;;;;;;5058061;28;20208;-77
2022/06/29 04:36:47;;;;;;;1.27;1.17;;;13.80;99.90;;;;;;5052547;28;20268;-77
2022/06/29 04:39:13;;;;;;;0.82;0.80;;;13.90;99.90;;;;;;5051049;28;20197;-77
2022/06/29 04:41:38;;;;;;;0.68;0.68;;;14.00;99.90;;;;;;5050746;28;20201;-76
2022/06/29 04:44:04;;;;;;;0.50;0.50;;;14.10;99.90;;;;;;5051908;28;20198;-76
2022/06/29 04:46:30;;;;;;;0.95;0.95;;;14.30;99.90;;;;;;5051829;28;20292;-77
2022/06/29 04:49:01;;;;;;;0.60;0.60;;;14.40;99.90;;;;;;5052243;28;20205;-77
2022/06/29 04:51:29;;;;;;;0.70;0.70;;;14.50;99.90;;;;;;5059493;28;20270;-77
2022/06/29 04:53:56;;;;;;;0.80;0.80;;;14.50;99.90;;;;;;5071010;28;20201;-77
2022/06/29 04:56:27;;;;;;;0.60;0.60;;;14.60;99.90;;;;;;5070820;28;20197;-78
2022/06/29 04:58:54;;;;;;;0.50;0.50;;;14.70;99.90;;;;;;5070771;28;20193;-77
2022/06/29 05:01:24;;;;;;;0.38;0.38;;;14.80;99.90;;;;;;5071612;28;20564;-76
2022/06/29 05:03:50;;;;;;;0.60;0.60;;;15.00;99.90;;;;;;5072057;28;20327;-78
2022/06/29 05:06:16;;;;;;;0.40;0.40;;;15.00;99.90;;;;;;5062352;28;20197;-77
2022/06/29 05:08:41;;;;;;;1.15;0.98;;;15.20;99.90;;;;;;5050757;28;20208;-77
2022/06/29 05:11:07;;;;;;;0.50;0.50;;;15.20;99.90;;;;;;5060609;28;20204;-78
2022/06/29 05:13:33;;;;;;;2.10;0.85;;;15.40;99.90;;;;;;5071788;28;20242;-77
2022/06/29 05:15:59;;;;;;;0.85;0.85;;;15.50;99.90;;;;;;5072049;28;20220;-77
2022/06/29 05:18:25;;;;;;;20.33;1.23;;;15.50;99.90;;;;;;5053294;28;20810;-78
2022/06/29 05:20:52;;;;;;;1.38;0.63;;;15.70;99.90;;;;;;5033792;28;20659;-78
2022/06/29 05:23:19;;;;;;;0.55;0.55;;;15.80;99.90;;;;;;5051744;28;20686;-78
2022/06/29 05:25:44;;;;;;;0.68;0.68;;;15.80;99.90;;;;;;5051978;28;20193;-77
2022/06/29 05:28:11;;;;;;;0.60;0.60;;;16.00;99.90;;;;;;5051618;28;20189;-78
2022/06/29 05:30:38;;;;;;;0.50;0.50;;;16.10;99.90;;;;;;5036928;28;20347;-77
2022/06/29 05:33:05;;;;;;;1.30;0.85;;;16.10;99.90;;;;;;5031303;28;20202;-75
2022/06/29 05:35:33;;;;;;;0.75;0.50;;;16.30;99.90;;;;;;5031667;28;20194;-78
2022/06/29 05:38:00;;;;;;;0.82;0.57;;;16.40;99.90;;;;;;5031764;28;20276;-77
2022/06/29 05:40:26;;;;;;;2.78;0.55;;;16.60;99.90;;;;;;5013743;28;20285;-77
2022/06/29 05:42:52;;;;;;;0.75;0.75;;;16.70;99.90;;;;;;5031772;28;20193;-77
2022/06/29 05:45:18;;;;;;;0.40;0.40;;;16.80;99.90;;;;;;5034802;28;20190;-76
2022/06/29 05:47:44;;;;;;;1.60;0.70;;;16.80;99.90;;;;;;5045746;28;20225;-76
2022/06/29 05:50:10;;;;;;;0.40;0.40;;;17.00;99.90;;;;;;5055834;28;20734;-77
2022/06/29 05:52:37;;;;;;;13.45;0.50;;;17.10;99.90;;;;;;5055368;28;20217;-77
2022/06/29 05:55:04;;;;;;;0.40;0.40;;;17.20;99.90;;;;;;5055449;28;20240;-77
2022/06/29 05:57:30;;;;;;;0.50;0.50;;;17.40;99.90;;;;;;5055252;28;20204;-77
2022/06/29 05:59:56;;;;;;;1.90;0.88;;;17.60;99.90;;;;;;5037270;28;20565;-77
2022/06/29 06:02:21;;;;;;;0.77;0.77;;;17.70;99.90;;;;;;5054902;28;20198;-77
2022/06/29 06:04:47;;;;;;;0.68;0.68;;;17.80;99.90;;;;;;5055163;28;20266;-78
2022/06/29 06:07:13;;;;;;;0.60;0.60;;;17.80;99.90;;;;;;5046472;28;20206;-78
2022/06/29 06:09:39;;;;;;;1.40;1.02;;;17.90;99.90;;;;;;5054445;28;20194;-77
2022/06/29 06:12:05;;;;;;;0.57;0.57;;;18.10;99.90;;;;;;5037134;28;20210;-70
2022/06/29 06:14:30;;;;;;;2.08;1.00;;;18.40;99.90;;;;;;5054957;28;20185;-74
2022/06/29 06:16:56;;;;;;;0.40;0.40;;;19.10;99.90;;;;;;5054835;28;20236;-73
2022/06/29 06:19:22;;;;;;;0.30;0.30;;;19.40;99.90;;;;;;5036738;28;20189;-73
2022/06/29 06:21:47;;;;;;;13.75;0.60;;;19.90;99.90;;;;;;5036935;28;20194;-75
2022/06/29 06:24:13;;;;;;;1.75;0.82;;;20.00;99.90;;;;;;5037128;28;20223;-74
2022/06/29 06:26:39;;;;;;;0.80;0.80;;;20.30;99.90;;;;;;5054842;28;20198;-73
2022/06/29 06:29:04;;;;;;;1.35;1.08;;;20.50;99.90;;;;;;5054424;28;20675;-75
2022/06/29 06:31:31;;;;;;;2.22;0.70;;;21.10;99.90;;;;;;5054231;28;20221;-74
2022/06/29 06:33:57;;;;;;;0.40;0.40;;;21.60;99.90;;;;;;5054306;28;20556;-75
2022/06/29 06:36:23;;;;;;;0.20;0.20;;;21.60;99.90;;;;;;5054153;28;20194;-77
2022/06/29 06:38:48;;;;;;;2.92;1.52;;;22.00;99.90;;;;;;5054792;28;20259;-79
2022/06/29 06:41:24;;;;;;;0.85;0.77;;;22.30;99.90;;;;;;5054682;28;20189;-75
2022/06/29 06:43:52;;;;;;;0.65;0.65;;;22.40;99.90;;;;;;5054170;28;20598;-74
2022/06/29 06:46:18;;;;;;;1.10;1.02;;;22.30;99.90;;;;;;5036463;28;20204;-74
2022/06/29 06:48:45;;;;;;;1.05;0.75;;;21.60;99.90;;;;;;5054319;28;20193;-74
2022/06/29 06:51:11;;;;;;;0.38;0.38;;;21.40;99.90;;;;;;5054651;28;20197;-74
2022/06/29 06:53:37;;;;;;;0.32;0.32;;;21.60;99.90;;;;;;5053889;28;20224;-73
2022/06/29 06:56:03;;;;;;;1.30;0.70;;;22.00;99.90;;;;;;5053514;28;20197;-73
2022/06/29 06:58:29;;;;;;;0.35;0.30;;;22.30;99.90;;;;;;5054083;28;20242;-72
2022/06/29 07:00:54;;;;;;;5.47;1.48;;;22.40;99.90;;;;;;5053801;28;20269;-73
2022/06/29 07:03:20;;;;;;;0.63;0.40;;;22.40;99.90;;;;;;5046968;28;20286;-72
2022/06/29 07:05:46;;;;;;;0.30;0.30;;;22.50;99.90;;;;;;5039242;28;20744;-73
2022/06/29 07:08:11;;;;;;;0.52;0.52;;;22.50;99.90;;;;;;5053976;28;20189;-74
2022/06/29 07:10:37;;;;;;;0.55;0.50;;;22.60;99.90;;;;;;5053837;28;20251;-74
2022/06/29 07:13:03;;;;;;;1.85;0.68;;;22.60;99.90;;;;;;5053905;28;20741;-74
2022/06/29 07:15:28;;;;;;;0.28;0.28;;;22.50;99.90;;;;;;5053822;28;20662;-75
2022/06/29 07:17:54;;;;;;;1.65;1.05;;;22.80;99.90;;;;;;5053799;28;20589;-73
2022/06/29 07:20:20;;;;;;;0.35;0.35;;;22.70;99.90;;;;;;5053703;28;20204;-73
2022/06/29 07:22:46;;;;;;;1.63;1.02;;;22.50;99.90;;;;;;5035988;28;20205;-72
2022/06/29 07:25:12;;;;;;;2.33;1.02;;;22.80;99.90;;;;;;5035942;28;20212;-74
2022/06/29 07:27:37;;;;;;;1.08;0.82;;;22.80;99.90;;;;;;5053645;28;20726;-74
2022/06/29 07:30:04;;;;;;;0.73;0.73;;;22.90;99.90;;;;;;5053751;28;20190;-73
2022/06/29 07:32:30;;;;;;;1.50;0.80;;;22.70;99.90;;;;;;5052943;28;20202;-73
2022/06/29 07:34:56;;;;;;;0.45;0.45;;;22.80;99.90;;;;;;5035761;28;20292;-73
2022/06/29 07:37:22;;;;;;;0.38;0.38;;;22.60;99.90;;;;;;5053316;28;20360;-74
2022/06/29 07:39:47;;;;;;;0.30;0.30;;;22.90;99.90;;;;;;5047446;28;20571;-74
2022/06/29 07:42:13;;;;;;;0.43;0.43;;;23.20;99.90;;;;;;5033463;28;20194;-74
2022/06/29 07:44:39;;;;;;;4.30;0.35;;;23.50;99.90;;;;;;5033332;28;20280;-74
2022/06/29 07:47:05;;;;;;;0.90;0.75;;;23.50;99.90;;;;;;5033370;28;20202;-74
2022/06/29 07:49:30;;;;;;;0.57;0.50;;;23.70;99.90;;;;;;5033439;28;20541;-74
2022/06/29 07:51:56;;;;;;;0.40;0.40;;;23.50;99.90;;;;;;5033365;28;20252;-73
2022/06/29 07:54:23;;;;;;;0.40;0.40;;;23.20;99.90;;;;;;5033009;28;20190;-74
2022/06/29 07:56:48;;;;;;;0.57;0.57;;;23.30;99.90;;;;;;5015489;28;20191;-74
2022/06/29 07:59:14;;;;;;;0.43;0.43;;;23.30;99.90;;;;;;5033026;28;20616;-74
2022/06/29 08:01:40;;;;;;;0.35;0.30;;;23.40;99.90;;;;;;5032848;28;20212;-74
2022/06/29 08:04:06;;;;;;;2.40;0.93;;;23.70;99.90;;;;;;5033111;28;20198;-75
2022/06/29 08:06:31;;;;;;;0.40;0.40;;;24.10;99.90;;;;;;5044251;28;20200;-74
2022/06/29 08:08:58;;;;;;;0.30;0.30;;;24.50;99.90;;;;;;5051976;28;20667;-76
2022/06/29 08:11:24;;;;;;;0.98;0.80;;;24.50;99.90;;;;;;5034481;28;20328;-75
2022/06/29 08:13:50;;;;;;;0.35;0.28;;;24.00;99.90;;;;;;5053253;28;20716;-75
2022/06/29 08:16:16;;;;;;;0.40;0.40;;;23.70;99.90;;;;;;5052698;28;20254;-72
2022/06/29 08:18:41;;;;;;;0.35;0.35;;;23.60;99.90;;;;;;5052666;28;20216;-72
2022/06/29 08:21:07;;;;;;;0.20;0.20;;;23.70;99.90;;;;;;5034912;28;20668;-73
2022/06/29 08:23:33;;;;;;;0.45;0.45;;;24.00;99.90;;;;;;5052604;28;20204;-73
2022/06/29 08:25:59;;;;;;;0.40;0.40;;;24.50;99.90;;;;;;5052760;28;20228;-72
2022/06/29 08:28:26;;;;;;;2.28;0.90;;;25.00;99.90;;;;;;5052736;28;20193;-73
2022/06/29 08:30:53;;;;;;;3.63;0.85;;;25.00;99.90;;;;;;5052577;28;20676;-73
2022/06/29 08:33:21;;;;;;;2.03;0.85;;;24.90;99.90;;;;;;5052450;28;20293;-73
2022/06/29 08:35:48;;;;;;;0.43;0.43;;;24.90;99.90;;;;;;5051032;28;20285;-74
2022/06/29 08:38:14;;;;;;;1.55;0.60;;;25.10;99.90;;;;;;5052493;28;20190;-74
2022/06/29 08:40:46;;;;;;;0.20;0.20;;;25.60;99.90;;;;;;5052423;28;20243;-74
2022/06/29 08:43:15;;;;;;;0.20;0.20;;;25.80;99.90;;;;;;5052555;28;20193;-74
2022/06/29 08:45:50;;;;;;;1.13;0.65;;;25.70;99.90;;;;;;5052072;28;20206;-73
2022/06/29 08:48:17;;;;;;;0.70;0.70;;;25.60;99.90;;;;;;5034487;28;20201;-73
2022/06/29 08:50:47;;;;;;;0.50;0.50;;;25.80;99.90;;;;;;5052593;28;20193;-73
2022/06/29 08:53:14;;;;;;;0.52;0.52;;;25.90;99.90;;;;;;5052243;28;20245;-73
2022/06/29 08:55:51;;;;;;;0.98;0.55;;;26.30;99.90;;;;;;5051936;28;20243;-73
2022/06/29 08:58:23;;;;;;;0.20;0.20;;;26.40;99.90;;;;;;5052066;28;20185;-73
2022/06/29 09:00:49;;;;;;;0.43;0.30;;;26.20;99.90;;;;;;5051883;28;20189;-73
2022/06/29 09:03:18;;;;;;;1.65;1.05;;;26.40;99.90;;;;;;5051504;28;20656;-73
2022/06/29 09:05:54;;;;;;;0.22;0.22;;;26.60;99.90;;;;;;5052313;28;20207;-73
2022/06/29 09:08:20;;;;;;;0.43;0.43;;;26.80;99.90;;;;;;5033813;28;20192;-73
2022/06/29 09:10:46;;;;;;;0.60;0.43;;;26.70;99.90;;;;;;5034232;28;20212;-73
2022/06/29 09:13:17;;;;;;;0.30;0.30;;;26.80;99.90;;;;;;5052030;28;20181;-73
2022/06/29 09:15:46;;;;;;;0.43;0.43;;;27.10;99.90;;;;;;5051927;28;20268;-73
2022/06/29 09:18:32;;;;;;;0.20;0.20;;;27.50;99.90;;;;;;5051659;28;20225;-74
2022/06/29 09:21:03;;;;;;;0.47;0.30;;;27.60;99.90;;;;;;5034072;28;20190;-72
2022/06/29 09:23:30;;;;;;;0.30;0.30;;;26.90;99.90;;;;;;5051541;28;20193;-73
2022/06/29 09:25:57;;;;;;;0.70;0.50;;;26.50;99.90;;;;;;5051829;28;20217;-73
2022/06/29 09:28:25;;;;;;;1.27;0.70;;;26.50;99.90;;;;;;5051635;28;20193;-73
2022/06/29 09:30:55;;;;;;;1.85;1.00;;;26.80;99.90;;;;;;5051797;28;20189;-73
2022/06/29 09:33:25;;;;;;;0.98;0.50;;;27.20;99.90;;;;;;5050082;28;20563;-72
2022/06/29 09:36:13;;;;;;;0.30;0.30;;;27.70;99.90;;;;;;5051796;28;20196;-72
2022/06/29 09:38:39;;;;;;;0.20;0.20;;;28.10;99.90;;;;;;5033568;28;20738;-73
2022/06/29 09:41:13;;;;;;;0.30;0.30;;;28.50;99.90;;;;;;5051671;28;20380;-72
2022/06/29 09:43:44;;;;;;;0.30;0.30;;;28.30;99.90;;;;;;5051549;28;20185;-73
2022/06/29 09:46:13;;;;;;;0.45;0.38;;;28.30;99.90;;;;;;5033812;28;20189;-73
2022/06/29 09:48:40;;;;;;;0.60;0.60;;;28.20;99.90;;;;;;5051426;28;20200;-72
2022/06/29 09:54:06;;;;;;;0.40;0.40;;;28.20;99.90;;;;;;5022556;28;20623;-72
2022/06/29 09:56:33;;;;;;;0.20;0.20;;;28.10;99.90;;;;;;5031576;28;20186;-72
2022/06/29 09:59:00;;;;;;;1.35;0.50;;;28.00;99.90;;;;;;5031512;28;20182;-72
2022/06/29 10:04:15;;;;;;;0.93;0.57;;;28.10;99.90;;;;;;5031978;28;20236;-71
2022/06/29 10:06:42;;;;;;;0.15;0.15;;;28.60;99.90;;;;;;5043974;28;20224;-72
2022/06/29 10:09:08;;;;;;;0.20;0.20;;;29.00;99.90;;;;;;5033471;28;20201;-72
2022/06/29 10:14:42;;;;;;;0.63;0.52;;;29.60;99.90;;;;;;5051290;28;20254;-71
2022/06/29 10:17:22;;;;;;;1.85;0.75;;;29.10;99.90;;;;;;5051637;28;20340;-72
2022/06/29 10:19:56;;;;;;;1.27;0.32;;;29.40;99.90;;;;;;5051529;28;20677;-71
2022/06/29 10:22:22;;;;;;;0.20;0.20;;;30.00;99.90;;;;;;5051366;28;20201;-72
2022/06/29 10:25:09;;;;;;;0.30;0.30;;;30.10;99.90;;;;;;5051260;28;20275;-72
2022/06/29 10:27:35;;;;;;;0.30;0.30;;;30.30;99.90;;;;;;5051572;28;20192;-73
2022/06/29 10:30:20;;;;;;;0.20;0.20;;;30.60;99.90;;;;;;5051061;28;20224;-73
2022/06/29 10:32:46;;;;;;;0.85;0.38;;;30.60;99.90;;;;;;5055020;28;20744;-72
2022/06/29 10:35:12;;;;;;;0.20;0.20;;;30.90;99.90;;;;;;5055258;28;20705;-73
2022/06/29 10:37:52;;;;;;;1.50;0.55;;;31.20;99.90;;;;;;5054619;28;20189;-71
2022/06/29 10:40:22;;;;;;;3.72;1.27;;;30.60;99.90;;;;;;5036899;28;20204;-70
2022/06/29 10:45:35;;;;;;;0.55;0.38;;;31.00;99.90;;;;;;5054719;28;20202;-71
2022/06/29 10:48:05;;;;;;;0.43;0.35;;;31.10;99.90;;;;;;5050995;28;20200;-71
2022/06/29 10:50:31;;;;;;;6.50;0.85;;;31.40;99.90;;;;;;5035216;28;20247;-71
2022/06/29 10:53:02;;;;;;;0.30;0.30;;;31.30;99.60;;;;;;5034879;28;20210;-71
2022/06/29 10:55:29;;;;;;;1.85;0.75;;;31.70;99.90;;;;;;5034753;28;20190;-70
2022/06/29 10:57:56;;;;;;;0.30;0.30;;;31.70;99.60;;;;;;5034471;28;20695;-70
2022/06/29 11:00:24;;;;;;;0.90;0.30;;;31.20;97.50;;;;;;5034264;28;20244;-70
2022/06/29 11:02:50;;;;;;;0.22;0.20;;;30.30;98.80;;;;;;5034189;28;20197;-70
2022/06/29 11:05:16;;;;;;;0.35;0.35;;;29.70;99.90;;;;;;5017463;28;20284;-70
2022/06/29 11:13:23;;;;;;;0.88;0.32;;;31.40;98.70;;;;;;5053743;28;20212;-69
2022/06/29 11:15:51;;;;;;;0.15;0.15;;;32.00;95.80;;;;;;5054013;28;20189;-70
2022/06/29 11:18:20;;;;;;;0.43;0.43;;;32.20;98.30;;;;;;5066632;28;20268;-70
2022/06/29 11:20:48;;;;;;;0.20;0.20;;;32.50;95.80;;;;;;5074632;28;20196;-69
2022/06/29 11:23:30;;;;;;;6.13;0.98;;;32.50;93.60;;;;;;5074197;28;20238;-70
2022/06/29 11:25:56;;;;;;;0.10;0.10;;;32.60;95.00;;;;;;5073857;28;20240;-69
2022/06/29 11:28:28;;;;;;;0.73;0.30;;;32.80;91.10;;;;;;5072836;28;20192;-70
2022/06/29 11:31:08;;;;;;;0.30;0.30;;;32.60;83.20;;;;;;5074280;28;20651;-70
2022/06/29 11:33:39;;;;;;;0.17;0.17;;;31.90;88.50;;;;;;5073770;28;20196;-70
2022/06/29 11:36:07;;;;;;;0.32;0.32;;;31.00;84.10;;;;;;5074290;28;20238;-69
2022/06/29 11:38:42;;;;;;;0.10;0.10;;;29.80;84.80;;;;;;5073577;28;20203;-69
2022/06/29 11:41:15;;;;;;;0.20;0.20;;;28.70;82.60;;;;;;5073619;28;20183;-69
2022/06/29 11:43:42;;;;;;;0.30;0.30;;;28.10;88.00;;;;;;5072729;28;20192;-69
2022/06/29 11:46:19;;;;;;;0.15;0.15;;;28.30;93.10;;;;;;5054476;28;20263;-71
2022/06/29 11:51:58;;;;;;;0.15;0.15;;;30.40;87.80;;;;;;5053286;28;20286;-70
2022/06/29 11:54:39;;;;;;;0.10;0.10;;;31.50;86.50;;;;;;5053621;28;20243;-72
2022/06/29 11:57:06;;;;;;;0.05;0.05;;;32.20;85.50;;;;;;5053616;28;20193;-71
2022/06/29 11:59:33;;;;;;;0.43;0.43;;;32.80;83.60;;;;;;5053426;28;20753;-71
2022/06/29 12:01:59;;;;;;;0.10;0.10;;;33.20;77.10;;;;;;5052519;28;20283;-70
2022/06/29 12:04:30;;;;;;;0.50;0.22;;;32.90;78.00;;;;;;5053233;28;20678;-71
2022/06/29 12:07:08;;;;;;;0.45;0.40;;;32.00;76.30;;;;;;5068061;28;20200;-71
2022/06/29 12:09:35;;;;;;;0.20;0.20;;;31.40;81.80;;;;;;5073258;28;20183;-71
2022/06/29 12:12:01;;;;;;;0.10;0.10;;;31.30;79.40;;;;;;5073063;28;20212;-71
2022/06/29 12:14:27;;;;;;;0.85;0.30;;;31.40;79.60;;;;;;5073375;28;20188;-71
2022/06/29 12:16:52;;;;;;;0.20;0.20;;;31.40;81.70;;;;;;5067652;28;20221;-71
2022/06/29 12:19:18;;;;;;;0.13;0.13;;;31.80;77.30;;;;;;5053065;28;20663;-70
2022/06/29 12:21:44;;;;;;;0.35;0.35;;;31.50;76.60;;;;;;5035104;28;20636;-72
2022/06/29 12:24:10;;;;;;;0.70;0.47;;;31.00;76.60;;;;;;5052989;28;20692;-71
2022/06/29 12:26:35;;;;;;;0.40;0.32;;;30.60;78.20;;;;;;5053106;28;20278;-71
2022/06/29 12:29:01;;;;;;;0.20;0.10;;;30.80;83.30;;;;;;5035110;28;20284;-71
2022/06/29 12:31:27;;;;;;;1.95;0.28;;;31.30;79.40;;;;;;5034992;28;20208;-71
2022/06/29 12:33:52;;;;;;;0.30;0.30;;;31.60;77.00;;;;;;5052618;28;20192;-72
2022/06/29 12:36:18;;;;;;;0.13;0.13;;;31.80;78.10;;;;;;5053052;28;20291;-70
2022/06/29 12:38:44;;;;;;;0.20;0.20;;;32.20;76.90;;;;;;5052847;28;20185;-71
2022/06/29 12:41:09;;;;;;;0.30;0.30;;;31.80;81.60;;;;;;5042478;28;20205;-70
2022/06/29 12:43:35;;;;;;;0.20;0.20;;;31.40;78.00;;;;;;5015417;28;20208;-70
2022/06/29 12:46:01;;;;;;;0.10;0.10;;;31.60;74.10;;;;;;5015017;28;20189;-70
2022/06/29 12:48:27;;;;;;;0.30;0.28;;;32.10;78.60;;;;;;5014484;28;20228;-70
2022/06/29 12:50:53;;;;;;;0.10;0.10;;;32.40;79.80;;;;;;5032845;28;20280;-71
2022/06/29 12:53:19;;;;;;;0.30;0.30;;;32.40;75.60;;;;;;5014597;28;20228;-72
2022/06/29 12:55:45;;;;;;;27.20;0.35;;;31.90;77.00;;;;;;5032435;28;20186;-72
2022/06/29 12:58:11;;;;;;;0.13;0.13;;;32.10;78.20;;;;;;5032529;28;20193;-72
2022/06/29 13:00:37;;;;;;;0.10;0.05;;;32.70;83.20;;;;;;5014410;28;20260;-71
2022/06/29 13:03:03;;;;;;;1.55;0.30;;;33.10;82.90;;;;;;5014971;28;20194;-71
2022/06/29 13:05:29;;;;;;;0.30;0.30;;;33.10;74.00;;;;;;5034990;28;20258;-71
2022/06/29 13:07:54;;;;;;;1.98;0.45;;;32.40;78.30;;;;;;5051977;28;20209;-71